Time;durP1;ratioP1;P1;durP2;ratioP2;P2;SDS_P1;SDS_P2;PMS_P1;PMS_P2;Temp;Humidity;BMP_temperature;BMP_pressure;BME280_temperature;BME280_humidity;BME280_pressure;Samples;Min_cycle;Max_cycle;Signal;HPM_P1;HPM_P2
2023/04/28 00:02:02;;;;;;;8.32;4.72;;;;;;;;;;5024633;28;20054;-74
2023/04/28 00:04:29;;;;;;;8.98;4.43;;;;;;;;;;5025417;28;20096;-74
2023/04/28 00:06:56;;;;;;;7.72;4.47;;;;;;;;;;5024992;28;20053;-74
2023/04/28 00:09:23;;;;;;;8.73;4.45;;;;;;;;;;5025061;28;20684;-74
2023/04/28 00:11:49;;;;;;;8.48;3.88;;;;;;;;;;5023293;28;20064;-74
2023/04/28 00:14:15;;;;;;;7.70;4.15;;;;;;;;;;5005802;28;20141;-74
2023/04/28 00:16:42;;;;;;;8.23;3.65;;;;;;;;;;5005630;28;20093;-74
2023/04/28 00:19:09;;;;;;;8.30;4.28;;;;;;;;;;5005858;28;20149;-74
2023/04/28 00:21:35;;;;;;;9.38;4.30;;;;;;;;;;5006071;28;20606;-74
2023/04/28 00:24:02;;;;;;;10.35;4.07;;;;;;;;;;5006276;28;20085;-74
2023/04/28 00:26:28;;;;;;;8.27;4.30;;;;;;;;;;5005075;28;20174;-74
2023/04/28 00:28:54;;;;;;;8.48;3.45;;;;;;;;;;5006070;28;20058;-74
2023/04/28 00:31:21;;;;;;;7.20;3.75;;;;;;;;;;5005483;28;20050;-74
2023/04/28 00:33:47;;;;;;;8.85;3.97;;;;;;;;;;5020784;28;20882;-74
2023/04/28 00:36:13;;;;;;;9.73;3.80;;;;;;;;;;5025612;28;20144;-74
2023/04/28 00:38:40;;;;;;;7.25;3.85;;;;;;;;;;5025118;28;20531;-74
2023/04/28 00:41:08;;;;;;;11.45;4.00;;;;;;;;;;5025568;28;20505;-74
2023/04/28 00:43:52;;;;;;;9.20;4.30;;;;;;;;;;5024623;28;20501;-74
2023/04/28 00:46:28;;;;;;;7.03;3.60;;;;;;;;;;5023857;28;20054;-74
2023/04/28 00:48:55;;;;;;;11.02;4.03;;;;;;;;;;5023890;28;20054;-74
2023/04/28 00:51:22;;;;;;;8.00;4.00;;;;;;;;;;5024869;28;20137;-74
2023/04/28 00:53:49;;;;;;;8.15;4.00;;;;;;;;;;5006261;28;20055;-74
2023/04/28 00:56:15;;;;;;;11.18;3.72;;;;;;;;;;5004961;28;20164;-74
2023/04/28 00:58:43;;;;;;;9.77;3.90;;;;;;;;;;5005542;28;20145;-74
2023/04/28 01:01:09;;;;;;;8.63;3.80;;;;;;;;;;5008170;28;20537;-74
2023/04/28 01:03:37;;;;;;;8.02;4.05;;;;;;;;;;5005607;28;20140;-74
2023/04/28 01:06:05;;;;;;;9.23;4.00;;;;;;;;;;5004660;28;20058;-74
2023/04/28 01:08:32;;;;;;;9.27;3.75;;;;;;;;;;5004571;28;20054;-74
2023/04/28 01:10:58;;;;;;;6.90;3.80;;;;;;;;;;5004113;28;20058;-74
2023/04/28 01:13:25;;;;;;;8.32;4.25;;;;;;;;;;5003822;28;20538;-74
2023/04/28 01:15:51;;;;;;;6.75;3.47;;;;;;;;;;5003644;28;20089;-74
2023/04/28 01:18:18;;;;;;;8.38;4.10;;;;;;;;;;5004400;28;20054;-74
2023/04/28 01:20:44;;;;;;;9.55;3.90;;;;;;;;;;5004872;28;20055;-74
2023/04/28 01:23:12;;;;;;;9.48;3.97;;;;;;;;;;5005726;28;20065;-74
2023/04/28 01:25:38;;;;;;;9.40;4.05;;;;;;;;;;5005557;28;20054;-74
2023/04/28 01:28:05;;;;;;;9.63;4.13;;;;;;;;;;5005252;28;20513;-74
2023/04/28 01:30:31;;;;;;;10.45;4.15;;;;;;;;;;5005070;28;20133;-74
2023/04/28 01:32:58;;;;;;;7.43;3.70;;;;;;;;;;5023369;28;20084;-74
2023/04/28 01:35:24;;;;;;;7.53;3.75;;;;;;;;;;5024925;28;20108;-74
2023/04/28 01:37:50;;;;;;;8.55;3.90;;;;;;;;;;5025001;28;20057;-74
2023/04/28 01:40:17;;;;;;;8.60;3.92;;;;;;;;;;5024851;28;20053;-74
2023/04/28 01:42:43;;;;;;;8.88;3.80;;;;;;;;;;5023306;28;20060;-74
2023/04/28 01:45:10;;;;;;;6.82;3.53;;;;;;;;;;5025201;28;20065;-74
2023/04/28 01:47:36;;;;;;;10.90;4.03;;;;;;;;;;5024709;28;20057;-74
2023/04/28 01:50:03;;;;;;;8.10;3.88;;;;;;;;;;5024511;28;20531;-74
2023/04/28 01:52:29;;;;;;;11.00;3.30;;;;;;;;;;5024816;28;20129;-74
2023/04/28 01:54:55;;;;;;;8.63;3.78;;;;;;;;;;5024458;28;20144;-74
2023/04/28 01:57:22;;;;;;;8.25;3.70;;;;;;;;;;5023698;28;20629;-74
2023/04/28 01:59:48;;;;;;;7.20;3.63;;;;;;;;;;5007834;28;20512;-74
2023/04/28 02:02:15;;;;;;;7.60;3.80;;;;;;;;;;5010952;28;20049;-74
2023/04/28 02:04:41;;;;;;;6.35;3.40;;;;;;;;;;5024131;28;20056;-74
2023/04/28 02:07:08;;;;;;;7.07;3.50;;;;;;;;;;5024681;28;20050;-74
2023/04/28 02:09:34;;;;;;;9.23;3.92;;;;;;;;;;5023027;28;20160;-74
2023/04/28 02:12:01;;;;;;;7.93;3.78;;;;;;;;;;5024106;28;20077;-74
2023/04/28 02:14:28;;;;;;;8.52;3.60;;;;;;;;;;5024519;28;20060;-74
2023/04/28 02:16:54;;;;;;;9.10;4.28;;;;;;;;;;5012001;28;20062;-74
2023/04/28 02:19:20;;;;;;;9.40;3.50;;;;;;;;;;5003842;28;20054;-74
2023/04/28 02:21:47;;;;;;;8.57;4.15;;;;;;;;;;5004673;28;20986;-74
2023/04/28 02:24:13;;;;;;;8.10;3.60;;;;;;;;;;5004009;28;20875;-74
2023/04/28 02:26:40;;;;;;;9.82;3.72;;;;;;;;;;5004454;28;20050;-74
2023/04/28 02:29:07;;;;;;;7.35;3.70;;;;;;;;;;5006226;28;20141;-74
2023/04/28 02:31:33;;;;;;;7.90;3.97;;;;;;;;;;5024123;28;20065;-74
2023/04/28 02:33:59;;;;;;;9.30;4.00;;;;;;;;;;5023990;28;20142;-74
2023/04/28 02:36:26;;;;;;;11.15;3.90;;;;;;;;;;5022553;28;20073;-74
2023/04/28 02:38:53;;;;;;;8.32;3.92;;;;;;;;;;5020870;28;20073;-74
2023/04/28 02:41:19;;;;;;;9.02;3.70;;;;;;;;;;5005214;28;20089;-74
2023/04/28 02:43:46;;;;;;;7.18;3.83;;;;;;;;;;5004246;28;20453;-74
2023/04/28 02:46:12;;;;;;;8.02;4.05;;;;;;;;;;5004086;28;20057;-74
2023/04/28 02:48:39;;;;;;;9.80;3.70;;;;;;;;;;5005185;28;20141;-74
2023/04/28 02:51:06;;;;;;;7.32;3.50;;;;;;;;;;5022978;28;20065;-74
2023/04/28 02:53:32;;;;;;;6.65;3.50;;;;;;;;;;5023397;28;20209;-74
2023/04/28 02:56:00;;;;;;;10.48;3.95;;;;;;;;;;5004822;28;20995;-74
2023/04/28 02:58:27;;;;;;;7.60;4.00;;;;;;;;;;5011117;28;20122;-74
2023/04/28 03:00:53;;;;;;;9.85;3.42;;;;;;;;;;5023672;28;20054;-74
2023/04/28 03:03:20;;;;;;;6.75;3.53;;;;;;;;;;5023633;28;20058;-74
2023/04/28 03:05:46;;;;;;;8.77;3.25;;;;;;;;;;5038638;28;20052;-74
2023/04/28 03:08:12;;;;;;;9.13;3.70;;;;;;;;;;5024183;28;20535;-74
2023/04/28 03:10:39;;;;;;;7.53;3.70;;;;;;;;;;5027227;28;20061;-74
2023/04/28 03:13:06;;;;;;;7.45;3.70;;;;;;;;;;5026881;28;20061;-74
2023/04/28 03:15:32;;;;;;;10.77;3.85;;;;;;;;;;5017214;28;20548;-74
2023/04/28 03:17:58;;;;;;;6.18;3.38;;;;;;;;;;5023159;28;20058;-75
2023/04/28 03:20:25;;;;;;;6.38;3.35;;;;;;;;;;5026993;28;20057;-75
2023/04/28 03:22:51;;;;;;;10.93;3.60;;;;;;;;;;5026794;28;20177;-75
2023/04/28 03:25:17;;;;;;;8.02;3.70;;;;;;;;;;5020161;28;20514;-75
2023/04/28 03:27:44;;;;;;;7.93;3.70;;;;;;;;;;5007031;28;20137;-75
2023/04/28 03:30:10;;;;;;;10.23;3.55;;;;;;;;;;5007006;28;20057;-75
2023/04/28 03:32:37;;;;;;;9.30;4.20;;;;;;;;;;5007914;28;20540;-74
2023/04/28 03:35:03;;;;;;;7.18;3.50;;;;;;;;;;5007090;28;20054;-75
2023/04/28 03:37:30;;;;;;;10.73;3.78;;;;;;;;;;5007324;28;20050;-75
2023/04/28 03:39:56;;;;;;;7.45;3.92;;;;;;;;;;5023876;28;20585;-75
2023/04/28 03:42:22;;;;;;;7.68;3.50;;;;;;;;;;5041632;28;20085;-75
2023/04/28 03:44:48;;;;;;;8.77;3.90;;;;;;;;;;5026919;28;20057;-75
2023/04/28 03:47:15;;;;;;;10.10;3.45;;;;;;;;;;5026542;28;20152;-75
2023/04/28 03:49:41;;;;;;;9.13;3.67;;;;;;;;;;5026057;28;20452;-75
2023/04/28 03:52:08;;;;;;;8.18;3.83;;;;;;;;;;5025835;28;21126;-75
2023/04/28 03:54:34;;;;;;;9.30;3.95;;;;;;;;;;5026825;28;20087;-74
2023/04/28 03:57:01;;;;;;;11.15;4.00;;;;;;;;;;5024870;28;20136;-74
2023/04/28 03:59:27;;;;;;;9.57;3.85;;;;;;;;;;5025707;28;20112;-75
2023/04/28 04:01:53;;;;;;;9.75;3.90;;;;;;;;;;5024664;28;20147;-75
2023/04/28 04:04:20;;;;;;;9.25;4.72;;;;;;;;;;5031236;28;20061;-74
2023/04/28 04:06:47;;;;;;;9.63;3.85;;;;;;;;;;5027073;28;20053;-75
2023/04/28 04:09:14;;;;;;;8.00;4.18;;;;;;;;;;5013794;28;20514;-75
2023/04/28 04:11:40;;;;;;;10.00;4.32;;;;;;;;;;5005909;28;20508;-74
2023/04/28 04:14:06;;;;;;;8.63;3.83;;;;;;;;;;5006429;28;20059;-75
2023/04/28 04:16:34;;;;;;;9.13;4.20;;;;;;;;;;5023633;28;20057;-74
2023/04/28 04:19:00;;;;;;;10.48;4.38;;;;;;;;;;5025761;28;20509;-75
2023/04/28 04:21:27;;;;;;;9.80;4.20;;;;;;;;;;5025448;28;20136;-75
2023/04/28 04:23:53;;;;;;;11.10;4.88;;;;;;;;;;5025268;28;20165;-74
2023/04/28 04:26:19;;;;;;;8.93;4.28;;;;;;;;;;5025663;28;20517;-74
2023/04/28 04:28:46;;;;;;;8.73;4.05;;;;;;;;;;5024253;28;20061;-75
2023/04/28 04:31:12;;;;;;;7.63;4.03;;;;;;;;;;5023760;28;20057;-75
2023/04/28 04:33:38;;;;;;;8.63;4.20;;;;;;;;;;5035793;28;20057;-75
2023/04/28 04:36:05;;;;;;;9.60;4.50;;;;;;;;;;5045269;28;20136;-75
2023/04/28 04:38:32;;;;;;;10.35;4.05;;;;;;;;;;5021909;28;20072;-75
2023/04/28 04:40:58;;;;;;;9.82;4.20;;;;;;;;;;5035842;28;20053;-75
2023/04/28 04:43:24;;;;;;;10.68;4.47;;;;;;;;;;5039667;28;20132;-75
2023/04/28 04:45:51;;;;;;;10.98;4.38;;;;;;;;;;5044865;28;20092;-75
2023/04/28 04:48:17;;;;;;;10.25;4.30;;;;;;;;;;5028882;28;20474;-75
2023/04/28 04:50:44;;;;;;;7.82;4.20;;;;;;;;;;5024565;28;20611;-75
2023/04/28 04:53:10;;;;;;;8.18;3.92;;;;;;;;;;5015565;28;20070;-75
2023/04/28 04:55:41;;;;;;;11.07;5.10;;;;;;;;;;5018375;28;21031;-75
2023/04/28 04:58:07;;;;;;;10.45;4.47;;;;;;;;;;5033054;28;20136;-75
2023/04/28 05:00:34;;;;;;;10.80;4.63;;;;;;;;;;5008081;28;20101;-75
2023/04/28 05:03:02;;;;;;;10.00;4.50;;;;;;;;;;5017556;28;20050;-76
2023/04/28 05:05:29;;;;;;;11.60;5.00;;;;;;;;;;5043193;28;20060;-74
2023/04/28 05:07:55;;;;;;;9.15;4.80;;;;;;;;;;5009490;28;20097;-74
2023/04/28 05:10:23;;;;;;;9.27;4.85;;;;;;;;;;5004763;28;20130;-74
2023/04/28 05:12:49;;;;;;;9.10;5.20;;;;;;;;;;5017848;28;20530;-74
2023/04/28 05:15:16;;;;;;;10.77;5.35;;;;;;;;;;5037831;28;20085;-74
2023/04/28 05:17:42;;;;;;;10.75;5.25;;;;;;;;;;5015308;28;20047;-74
2023/04/28 05:20:09;;;;;;;9.27;5.22;;;;;;;;;;5022664;28;20599;-74
2023/04/28 05:22:38;;;;;;;14.05;5.20;;;;;;;;;;5022992;28;20060;-74
2023/04/28 05:25:04;;;;;;;9.85;4.97;;;;;;;;;;5008035;28;20133;-74
2023/04/28 05:27:31;;;;;;;10.70;5.35;;;;;;;;;;5003958;28;20058;-74
2023/04/28 05:29:58;;;;;;;11.02;5.47;;;;;;;;;;5022800;28;20137;-74
2023/04/28 05:32:26;;;;;;;9.88;5.35;;;;;;;;;;5027119;28;20061;-74
2023/04/28 05:34:53;;;;;;;9.13;4.88;;;;;;;;;;5022141;28;20045;-74
2023/04/28 05:37:19;;;;;;;16.23;5.90;;;;;;;;;;5019214;28;20054;-74
2023/04/28 05:39:46;;;;;;;14.35;6.13;;;;;;;;;;5009662;28;21120;-74
2023/04/28 05:42:12;;;;;;;14.55;6.35;;;;;;;;;;5016159;28;20104;-75
2023/04/28 05:44:38;;;;;;;15.48;6.03;;;;;;;;;;5010545;28;20057;-74
2023/04/28 05:47:08;;;;;;;16.10;6.15;;;;;;;;;;5022236;28;20477;-74
2023/04/28 05:49:34;;;;;;;12.38;6.53;;;;;;;;;;5035417;28;20054;-74
2023/04/28 05:52:00;;;;;;;16.40;6.80;;;;;;;;;;5026500;28;20521;-74
2023/04/28 05:54:27;;;;;;;14.25;7.18;;;;;;;;;;5019212;28;20058;-76
2023/04/28 05:56:53;;;;;;;14.00;7.90;;;;;;;;;;5030170;28;20054;-74
2023/04/28 05:59:19;;;;;;;15.90;7.35;;;;;;;;;;5007671;28;20065;-74
2023/04/28 06:01:46;;;;;;;15.43;7.97;;;;;;;;;;5023204;28;20574;-75
2023/04/28 06:04:12;;;;;;;15.98;7.68;;;;;;;;;;5022004;28;20793;-75
2023/04/28 06:06:39;;;;;;;14.80;8.75;;;;;;;;;;5036667;28;20330;-74
2023/04/28 06:09:05;;;;;;;14.38;8.30;;;;;;;;;;5025966;28;20062;-74
2023/04/28 06:11:31;;;;;;;16.50;8.15;;;;;;;;;;5014767;28;20054;-75
2023/04/28 06:13:58;;;;;;;15.13;8.60;;;;;;;;;;5011359;28;20054;-75
2023/04/28 06:16:24;;;;;;;16.80;9.40;;;;;;;;;;5023546;28;20468;-75
2023/04/28 06:18:52;;;;;;;19.35;8.57;;;;;;;;;;5023098;28;20046;-75
2023/04/28 06:21:20;;;;;;;17.95;9.15;;;;;;;;;;5004104;28;20068;-75
2023/04/28 06:23:46;;;;;;;15.43;8.77;;;;;;;;;;5018911;28;20537;-74
2023/04/28 06:26:12;;;;;;;17.70;9.13;;;;;;;;;;5019482;28;22527;-74
2023/04/28 06:28:42;;;;;;;15.27;8.55;;;;;;;;;;5023714;28;20105;-74
2023/04/28 06:31:08;;;;;;;17.70;9.32;;;;;;;;;;5018642;28;20065;-75
2023/04/28 06:33:35;;;;;;;17.77;9.27;;;;;;;;;;5022765;28;20497;-74
2023/04/28 06:36:01;;;;;;;17.13;9.35;;;;;;;;;;5022895;28;20061;-74
2023/04/28 06:38:27;;;;;;;19.80;9.50;;;;;;;;;;5022865;28;20148;-74
2023/04/28 06:40:53;;;;;;;15.77;9.85;;;;;;;;;;5039673;28;20065;-74
2023/04/28 06:43:20;;;;;;;16.13;9.30;;;;;;;;;;5027957;28;20054;-75
2023/04/28 06:45:47;;;;;;;21.02;9.57;;;;;;;;;;5026151;28;20140;-75
2023/04/28 06:48:13;;;;;;;20.48;10.40;;;;;;;;;;5006274;28;20063;-77
2023/04/28 06:50:40;;;;;;;20.27;10.55;;;;;;;;;;5020478;28;20143;-77
2023/04/28 06:53:09;;;;;;;20.15;10.48;;;;;;;;;;5026515;28;20108;-77
2023/04/28 06:55:35;;;;;;;15.90;9.38;;;;;;;;;;5026333;28;20165;-74
2023/04/28 06:58:01;;;;;;;16.60;9.40;;;;;;;;;;5025535;28;20058;-74
2023/04/28 07:00:28;;;;;;;17.90;10.57;;;;;;;;;;5026247;28;20060;-74
2023/04/28 07:02:54;;;;;;;17.63;9.90;;;;;;;;;;5026420;28;20061;-75
2023/04/28 07:05:21;;;;;;;18.38;10.32;;;;;;;;;;5026944;28;20583;-75
2023/04/28 07:07:48;;;;;;;20.92;10.65;;;;;;;;;;5026655;28;20132;-74
2023/04/28 07:10:15;;;;;;;20.05;11.00;;;;;;;;;;5027199;28;20053;-74
2023/04/28 07:12:41;;;;;;;17.38;10.52;;;;;;;;;;5026204;28;20050;-74
2023/04/28 07:15:07;;;;;;;19.10;11.23;;;;;;;;;;5025847;28;20054;-75
2023/04/28 07:17:35;;;;;;;18.00;10.65;;;;;;;;;;5026758;28;20062;-75
2023/04/28 07:20:03;;;;;;;20.20;11.88;;;;;;;;;;5025505;28;20046;-75
2023/04/28 07:22:29;;;;;;;17.88;9.90;;;;;;;;;;5015932;28;20050;-74
2023/04/28 07:24:55;;;;;;;20.90;11.63;;;;;;;;;;5023558;28;20054;-74
2023/04/28 07:27:22;;;;;;;22.40;11.43;;;;;;;;;;5023591;28;20053;-74
2023/04/28 07:29:48;;;;;;;20.42;10.85;;;;;;;;;;5014764;28;20124;-76
2023/04/28 07:32:15;;;;;;;18.67;10.90;;;;;;;;;;5015360;28;20058;-74
2023/04/28 07:34:41;;;;;;;20.00;10.93;;;;;;;;;;5022891;28;20049;-75
2023/04/28 07:37:08;;;;;;;19.70;11.05;;;;;;;;;;5012041;28;20141;-75
2023/04/28 07:39:35;;;;;;;18.08;10.52;;;;;;;;;;5020813;28;20517;-75
2023/04/28 07:42:01;;;;;;;21.92;10.93;;;;;;;;;;5018892;28;20057;-75
2023/04/28 07:44:29;;;;;;;21.23;11.82;;;;;;;;;;5014262;28;20058;-76
2023/04/28 07:46:55;;;;;;;22.23;11.68;;;;;;;;;;5026613;28;20123;-75
2023/04/28 07:49:22;;;;;;;21.83;11.73;;;;;;;;;;5023017;28;20513;-75
2023/04/28 07:51:48;;;;;;;18.55;11.50;;;;;;;;;;5018526;28;20750;-75
2023/04/28 07:54:16;;;;;;;20.23;12.00;;;;;;;;;;5020419;28;20049;-75
2023/04/28 07:56:43;;;;;;;20.70;11.57;;;;;;;;;;5020661;28;20715;-75
2023/04/28 07:59:09;;;;;;;24.30;12.23;;;;;;;;;;5020339;28;20119;-76
2023/04/28 08:01:35;;;;;;;20.15;11.88;;;;;;;;;;5010429;28;20046;-75
2023/04/28 08:04:05;;;;;;;21.13;11.57;;;;;;;;;;5024923;28;20053;-75
2023/04/28 08:06:32;;;;;;;20.25;11.38;;;;;;;;;;5024670;28;20065;-75
2023/04/28 08:08:59;;;;;;;20.95;11.23;;;;;;;;;;5039697;28;20516;-75
2023/04/28 08:11:25;;;;;;;23.48;12.15;;;;;;;;;;5022055;28;20060;-75
2023/04/28 08:13:52;;;;;;;23.15;12.00;;;;;;;;;;5005826;28;20068;-75
2023/04/28 08:16:18;;;;;;;22.05;11.27;;;;;;;;;;5004762;28;20065;-76
2023/04/28 08:18:45;;;;;;;19.58;11.60;;;;;;;;;;5003304;28;20517;-75
2023/04/28 08:21:11;;;;;;;24.10;12.65;;;;;;;;;;5024612;28;20579;-76
2023/04/28 08:23:37;;;;;;;19.52;11.95;;;;;;;;;;5008856;28;20058;-75
2023/04/28 08:26:04;;;;;;;22.33;11.65;;;;;;;;;;5023335;28;20068;-75
2023/04/28 08:28:32;;;;;;;22.00;12.70;;;;;;;;;;5024064;28;20054;-76
2023/04/28 08:30:59;;;;;;;24.30;13.45;;;;;;;;;;5024831;28;20061;-75
2023/04/28 08:33:26;;;;;;;29.08;14.18;;;;;;;;;;5040362;28;20062;-75
2023/04/28 08:35:53;;;;;;;23.70;14.07;;;;;;;;;;5024523;28;20054;-75
2023/04/28 08:38:22;;;;;;;24.35;14.00;;;;;;;;;;5024372;28;20181;-75
2023/04/28 08:40:49;;;;;;;26.17;13.77;;;;;;;;;;5024079;28;20137;-75
2023/04/28 08:43:15;;;;;;;22.63;14.27;;;;;;;;;;5025515;28;20693;-75
2023/04/28 08:45:43;;;;;;;32.22;15.23;;;;;;;;;;5024298;28;20555;-75
2023/04/28 08:48:20;;;;;;;25.33;14.45;;;;;;;;;;5032354;28;20141;-74
2023/04/28 08:50:53;;;;;;;26.02;16.30;;;;;;;;;;5005063;28;20132;-74
2023/04/28 08:53:24;;;;;;;28.60;16.80;;;;;;;;;;5004412;28;20056;-75
2023/04/28 08:55:51;;;;;;;26.98;15.50;;;;;;;;;;5004428;28;20165;-75
2023/04/28 08:58:18;;;;;;;28.80;16.73;;;;;;;;;;5004252;28;20058;-75
2023/04/28 09:00:44;;;;;;;23.58;15.15;;;;;;;;;;5015776;28;20065;-75
2023/04/28 09:03:11;;;;;;;24.30;16.10;;;;;;;;;;5024307;28;20061;-76
2023/04/28 09:05:37;;;;;;;26.67;16.90;;;;;;;;;;5039555;28;20061;-76
2023/04/28 09:08:04;;;;;;;25.77;15.02;;;;;;;;;;5016465;28;20972;-74
2023/04/28 09:10:30;;;;;;;24.20;15.60;;;;;;;;;;5035033;28;20076;-75
2023/04/28 09:12:59;;;;;;;25.63;15.65;;;;;;;;;;5025183;28;20054;-75
2023/04/28 09:15:33;;;;;;;26.27;16.00;;;;;;;;;;5014211;28;20128;-74
2023/04/28 09:18:00;;;;;;;32.33;17.05;;;;;;;;;;5011382;28;20133;-74
2023/04/28 09:20:28;;;;;;;30.13;17.35;;;;;;;;;;5041295;28;20672;-73
2023/04/28 09:22:55;;;;;;;54.15;20.55;;;;;;;;;;5016798;28;20054;-74
2023/04/28 09:25:22;;;;;;;54.25;23.63;;;;;;;;;;5004033;28;20663;-74
2023/04/28 09:27:49;;;;;;;166.07;36.72;;;;;;;;;;5032634;28;20056;-74
2023/04/28 09:30:15;;;;;;;92.63;29.58;;;;;;;;;;5034181;28;20057;-74
2023/04/28 09:32:42;;;;;;;25.77;15.65;;;;;;;;;;5023036;28;20101;-74
2023/04/28 09:35:09;;;;;;;33.47;17.23;;;;;;;;;;5016238;28;20055;-75
2023/04/28 09:37:36;;;;;;;32.17;18.15;;;;;;;;;;5034458;28;21036;-74
2023/04/28 09:40:07;;;;;;;48.35;22.52;;;;;;;;;;5038671;28;20061;-74
2023/04/28 09:42:33;;;;;;;;;;;;;;;;;;5022822;28;21029;-73
2023/04/28 09:45:04;;;;;;;70.30;26.13;;;;;;;;;;5015699;28;45761;-73
2023/04/28 09:47:32;;;;;;;51.03;22.33;;;;;;;;;;5014857;28;20050;-73
2023/04/28 09:49:59;;;;;;;25.40;16.23;;;;;;;;;;5021101;28;20054;-73
2023/04/28 09:52:26;;;;;;;25.67;16.17;;;;;;;;;;5025685;28;20058;-74
2023/04/28 09:54:53;;;;;;;46.47;20.05;;;;;;;;;;5019402;28;20050;-73
2023/04/28 09:57:20;;;;;;;92.95;31.58;;;;;;;;;;5021484;28;20138;-75
2023/04/28 09:59:47;;;;;;;967.97;82.90;;;;;;;;;;5020253;28;20050;-77
2023/04/28 10:02:18;;;;;;;51.08;23.38;;;;;;;;;;5025843;28;20045;-74
2023/04/28 10:05:07;;;;;;;39.20;22.38;;;;;;;;;;5020518;28;20089;-74
2023/04/28 10:07:34;;;;;;;91.57;31.53;;;;;;;;;;5037378;28;20145;-76
2023/04/28 10:10:03;;;;;;;22.83;14.55;;;;;;;;;;5026770;28;20057;-75
2023/04/28 10:12:31;;;;;;;32.90;16.25;;;;;;;;;;5012363;28;20076;-77
2023/04/28 10:14:58;;;;;;;264.83;36.28;;;;;;;;;;5002453;28;20105;-76
2023/04/28 10:17:26;;;;;;;28.67;16.27;;;;;;;;;;5018284;28;20954;-76
2023/04/28 10:19:52;;;;;;;460.52;51.75;;;;;;;;;;5008866;28;20050;-75
2023/04/28 10:22:21;;;;;;;676.08;53.63;;;;;;;;;;5036369;28;20081;-77
2023/04/28 10:24:57;;;;;;;26.95;15.32;;;;;;;;;;5043156;28;21092;-76
2023/04/28 10:27:28;;;;;;;37.03;16.52;;;;;;;;;;5012928;28;20051;-76
2023/04/28 10:30:08;;;;;;;29.40;15.57;;;;;;;;;;5015546;28;20061;-75
2023/04/28 10:33:10;;;;;;;29.25;14.77;;;;;;;;;;5003248;28;20069;-75
2023/04/28 10:35:44;;;;;;;87.60;20.15;;;;;;;;;;5027119;28;20065;-76
2023/04/28 10:38:11;;;;;;;21.33;13.40;;;;;;;;;;5019260;28;20061;-75
2023/04/28 10:40:44;;;;;;;84.30;28.90;;;;;;;;;;5019280;28;20061;-75
2023/04/28 10:43:11;;;;;;;37.25;16.13;;;;;;;;;;5021079;28;20093;-77
2023/04/28 10:45:58;;;;;;;29.50;15.10;;;;;;;;;;5011523;28;20511;-75
2023/04/28 10:48:25;;;;;;;21.75;13.02;;;;;;;;;;5026912;28;20063;-78
2023/04/28 10:51:08;;;;;;;22.10;13.30;;;;;;;;;;5024817;28;20060;-79
2023/04/28 10:53:44;;;;;;;17.15;11.40;;;;;;;;;;5019002;28;20057;-77
2023/04/28 10:56:12;;;;;;;18.83;11.77;;;;;;;;;;5046703;28;20029;-79
2023/04/28 10:58:41;;;;;;;18.83;11.73;;;;;;;;;;5024910;28;20068;-76
2023/04/28 11:01:20;;;;;;;18.65;11.30;;;;;;;;;;5019500;28;20117;-79
2023/04/28 11:03:50;;;;;;;20.60;12.60;;;;;;;;;;5016866;28;20480;-77
2023/04/28 11:06:19;;;;;;;22.55;12.98;;;;;;;;;;5030332;28;20088;-76
2023/04/28 11:08:45;;;;;;;19.73;12.10;;;;;;;;;;5023014;28;20058;-75
2023/04/28 11:11:15;;;;;;;19.92;12.30;;;;;;;;;;5035504;28;20057;-77
2023/04/28 11:13:45;;;;;;;22.40;13.07;;;;;;;;;;5018126;28;20070;-78
2023/04/28 11:16:16;;;;;;;23.38;13.38;;;;;;;;;;5023231;28;20065;-78
2023/04/28 11:18:53;;;;;;;25.08;14.48;;;;;;;;;;5027018;28;20053;-78
2023/04/28 11:21:22;;;;;;;25.45;14.48;;;;;;;;;;5008964;28;20053;-78
2023/04/28 11:23:49;;;;;;;27.92;15.32;;;;;;;;;;5022689;28;20141;-77
2023/04/28 11:26:16;;;;;;;29.40;15.32;;;;;;;;;;5024791;28;20464;-78
2023/04/28 11:28:49;;;;;;;27.50;15.90;;;;;;;;;;5025010;28;20062;-77
2023/04/28 11:31:18;;;;;;;25.77;13.45;;;;;;;;;;5043073;28;20104;-78
2023/04/28 11:34:05;;;;;;;21.25;12.20;;;;;;;;;;5018788;28;20504;-78
2023/04/28 11:36:38;;;;;;;19.40;11.40;;;;;;;;;;5026566;28;20094;-79
2023/04/28 11:39:06;;;;;;;16.45;10.07;;;;;;;;;;5020974;28;20152;-78
2023/04/28 11:41:37;;;;;;;15.45;8.35;;;;;;;;;;5047242;28;20057;-76
2023/04/28 11:44:10;;;;;;;14.63;8.05;;;;;;;;;;5033027;28;20567;-78
2023/04/28 11:46:43;;;;;;;13.75;6.90;;;;;;;;;;5051912;28;21204;-79
2023/04/28 11:49:09;;;;;;;14.00;7.38;;;;;;;;;;5034899;28;20058;-78
2023/04/28 11:51:37;;;;;;;15.98;8.00;;;;;;;;;;5029611;28;20086;-79
2023/04/28 11:54:06;;;;;;;12.63;7.47;;;;;;;;;;5015113;28;20068;-78
2023/04/28 11:56:36;;;;;;;14.90;8.05;;;;;;;;;;5026667;28;20436;-78
2023/04/28 11:59:12;;;;;;;13.57;7.40;;;;;;;;;;5046308;28;20053;-81
2023/04/28 12:01:48;;;;;;;14.70;7.63;;;;;;;;;;5029335;28;20065;-80
2023/04/28 12:04:25;;;;;;;15.70;7.75;;;;;;;;;;5025727;28;20061;-79
2023/04/28 12:06:58;;;;;;;15.48;7.32;;;;;;;;;;5031594;28;20065;-80
2023/04/28 12:09:25;;;;;;;14.60;8.10;;;;;;;;;;5025382;28;20162;-80
2023/04/28 12:11:53;;;;;;;13.57;7.18;;;;;;;;;;5034684;28;20062;-80
2023/04/28 12:14:19;;;;;;;15.30;7.47;;;;;;;;;;5032170;28;20136;-79
2023/04/28 12:16:47;;;;;;;13.65;7.50;;;;;;;;;;5017052;28;20061;-80
2023/04/28 12:19:14;;;;;;;16.40;7.53;;;;;;;;;;5012285;28;20066;-78
2023/04/28 12:21:41;;;;;;;14.70;7.25;;;;;;;;;;5012828;28;20204;-78
2023/04/28 12:24:14;;;;;;;13.98;7.40;;;;;;;;;;5013196;28;20571;-79
2023/04/28 12:26:41;;;;;;;12.50;6.80;;;;;;;;;;5011559;28;20050;-80
2023/04/28 12:29:09;;;;;;;11.85;5.82;;;;;;;;;;5009734;28;20062;-78
2023/04/28 12:31:51;;;;;;;12.55;6.05;;;;;;;;;;5011033;28;20064;-77
2023/04/28 12:34:18;;;;;;;9.63;5.32;;;;;;;;;;5009645;28;20068;-77
2023/04/28 12:36:45;;;;;;;9.63;5.40;;;;;;;;;;5008523;28;20863;-77
2023/04/28 12:39:12;;;;;;;10.63;5.70;;;;;;;;;;5006541;28;20047;-77
2023/04/28 12:41:39;;;;;;;8.73;5.22;;;;;;;;;;5007642;28;20160;-77
2023/04/28 12:44:05;;;;;;;10.10;5.10;;;;;;;;;;5007175;28;20082;-77
2023/04/28 12:46:31;;;;;;;9.60;4.38;;;;;;;;;;5006967;28;20077;-77
2023/04/28 12:48:58;;;;;;;8.23;3.95;;;;;;;;;;5007772;28;20140;-77
2023/04/28 12:51:28;;;;;;;6.47;3.28;;;;;;;;;;5004345;28;20054;-77
2023/04/28 12:53:54;;;;;;;6.68;3.50;;;;;;;;;;5006742;28;20058;-77
2023/04/28 12:56:22;;;;;;;6.13;2.95;;;;;;;;;;5007764;28;20472;-77
2023/04/28 12:58:49;;;;;;;7.55;3.17;;;;;;;;;;5006396;28;20059;-77
2023/04/28 13:01:15;;;;;;;5.72;2.83;;;;;;;;;;5005714;28;20509;-77
2023/04/28 13:03:43;;;;;;;4.95;2.80;;;;;;;;;;5004651;28;20057;-77
2023/04/28 13:06:09;;;;;;;4.18;2.33;;;;;;;;;;5007700;28;20509;-78
2023/04/28 13:08:36;;;;;;;4.10;2.20;;;;;;;;;;5006427;28;20057;-78
2023/04/28 13:11:04;;;;;;;4.60;2.60;;;;;;;;;;5003611;28;20050;-78
2023/04/28 13:13:46;;;;;;;4.47;2.47;;;;;;;;;;5009997;28;20065;-77
2023/04/28 13:16:13;;;;;;;4.97;2.75;;;;;;;;;;5008668;28;20596;-77
2023/04/28 13:18:40;;;;;;;6.88;2.90;;;;;;;;;;5005598;28;20147;-77
2023/04/28 13:21:06;;;;;;;5.18;2.80;;;;;;;;;;5004722;28;20061;-76
2023/04/28 13:23:33;;;;;;;5.18;3.15;;;;;;;;;;5009284;28;20065;-75
2023/04/28 13:25:59;;;;;;;6.38;3.72;;;;;;;;;;5005496;28;20114;-75
2023/04/28 13:28:27;;;;;;;6.45;3.92;;;;;;;;;;5004784;28;20680;-75
2023/04/28 13:30:53;;;;;;;7.78;4.03;;;;;;;;;;5006647;28;20054;-75
2023/04/28 13:33:20;;;;;;;6.85;4.15;;;;;;;;;;5006237;28;20054;-75
2023/04/28 13:35:46;;;;;;;5.88;3.67;;;;;;;;;;5004650;28;20089;-75
2023/04/28 13:38:13;;;;;;;8.32;4.03;;;;;;;;;;5008736;28;20429;-75
2023/04/28 13:40:41;;;;;;;6.60;3.70;;;;;;;;;;5005881;28;20050;-75
2023/04/28 13:43:07;;;;;;;7.47;4.43;;;;;;;;;;5012617;28;20057;-75
2023/04/28 13:45:33;;;;;;;6.65;4.43;;;;;;;;;;5007751;28;20057;-76
2023/04/28 13:48:00;;;;;;;7.15;4.85;;;;;;;;;;5007545;28;20576;-75
2023/04/28 13:50:26;;;;;;;8.07;5.40;;;;;;;;;;5008594;28;21153;-76
2023/04/28 13:52:53;;;;;;;6.80;5.00;;;;;;;;;;5004679;28;20086;-76
2023/04/28 13:55:26;;;;;;;8.05;5.07;;;;;;;;;;5005420;28;21004;-76
2023/04/28 13:57:53;;;;;;;7.28;4.75;;;;;;;;;;5005236;28;20058;-77
2023/04/28 14:00:20;;;;;;;8.48;5.28;;;;;;;;;;5007732;28;20057;-77
2023/04/28 14:02:48;;;;;;;8.77;5.50;;;;;;;;;;5012859;28;21001;-77
2023/04/28 14:05:18;;;;;;;7.57;5.13;;;;;;;;;;5009328;28;20085;-77
2023/04/28 14:07:44;;;;;;;7.25;5.05;;;;;;;;;;5005528;28;20833;-78
2023/04/28 14:10:11;;;;;;;7.03;5.10;;;;;;;;;;5009270;28;20063;-78
2023/04/28 14:12:37;;;;;;;7.57;5.65;;;;;;;;;;5004380;28;20058;-78
2023/04/28 14:15:07;;;;;;;6.63;5.18;;;;;;;;;;5006977;28;20058;-78
2023/04/28 14:17:33;;;;;;;6.30;4.55;;;;;;;;;;5006652;28;20054;-78
2023/04/28 14:20:00;;;;;;;6.53;4.90;;;;;;;;;;5004570;28;20221;-77
2023/04/28 14:22:27;;;;;;;7.07;4.93;;;;;;;;;;5007638;28;20185;-77
2023/04/28 14:24:53;;;;;;;7.47;4.72;;;;;;;;;;5004649;28;20061;-77
2023/04/28 14:27:20;;;;;;;6.25;4.47;;;;;;;;;;5007050;28;21350;-77
2023/04/28 14:29:47;;;;;;;6.88;4.20;;;;;;;;;;5009583;28;20050;-77
2023/04/28 14:32:20;;;;;;;5.70;4.00;;;;;;;;;;5010482;28;21269;-77
2023/04/28 14:34:48;;;;;;;7.88;4.43;;;;;;;;;;5006033;28;20057;-77